Pagrindinis puslapis
METAR-TAF:

METAR-TAF

Oro uostai :

Tarakan, Indonezija

platuma: 03-19-36N, ilguma: 117-33-56E, Aukštis: 6 m

METAR: trūkstamas

Laikas: 02:35 (19:35 UTC)

Prognozė

Ataskaita buvo paskelbta 2 valandos ir 35 minutes, ne 17:00 UTC
Prognozė galioja nuo 30 metu 18 UTC su 01 metu 06 UTC
Vėjas kt iš Šiaurės
Matomumas: 8000 m
Išsisklaidę debesys ne aukštis 1500 ft
Tapsmas
nuo 01 metu 00 UTC su 01 metu 02 UTC
Vėjas 6 kt iš Vakarų/Šiaurės Vakarų

TAF: WAQQ 301700Z 3018/0106 00000KT 8000 SCT015 BECMG 0100/0102 29006KT

Orai ataskaitas ir orų prognozės (METAR, TAF).

turimą stotys yra geltonos ir raudonos taškus žemėlapyje.

Perkelti pele per norėdami pamatyti stoties vardą.

Tada spustelėkite, norėdami matyti oro stebėjimo ir prognozės.

Norėdami pakeisti žemėlapį: spustelėkite ant žalios mygtukų su juodo kryžiaus žemyn,; žalią mygtuką su brūkšneliu, jei norite nutolinti; arba žalių rodyklių gretimoms žemėlapius.


METAR-TAF: